Time;durP1;ratioP1;P1;durP2;ratioP2;P2;SDS_P1;SDS_P2;PMS_P1;PMS_P2;Temp;Humidity;BMP_temperature;BMP_pressure;BME280_temperature;BME280_humidity;BME280_pressure;Samples;Min_cycle;Max_cycle;Signal;HPM_P1;HPM_P2
2024/01/26 00:02:01;;;;;;;6.77;4.37;;;3.50;95.20;;;;;;5077698;28;20235;-78
2024/01/26 00:04:27;;;;;;;8.17;4.67;;;3.40;95.00;;;;;;5077420;28;20185;-78
2024/01/26 00:06:53;;;;;;;7.83;4.50;;;3.40;95.00;;;;;;5076504;28;20201;-77
2024/01/26 00:09:20;;;;;;;7.27;4.13;;;3.30;95.10;;;;;;5075847;28;20196;-76
2024/01/26 00:11:45;;;;;;;4.70;3.70;;;3.40;94.80;;;;;;5074334;28;20179;-78
2024/01/26 00:14:11;;;;;;;8.97;4.10;;;3.30;94.70;;;;;;5077137;28;20177;-76
2024/01/26 00:16:38;;;;;;;6.47;4.07;;;3.20;95.00;;;;;;5078072;28;20248;-77
2024/01/26 00:19:07;;;;;;;6.00;4.27;;;3.20;95.20;;;;;;5075307;28;20196;-76
2024/01/26 00:21:32;;;;;;;7.47;3.93;;;3.20;95.10;;;;;;5074140;28;20181;-77
2024/01/26 00:23:59;;;;;;;5.90;4.03;;;3.10;95.20;;;;;;5073478;28;20572;-76
2024/01/26 00:26:26;;;;;;;6.10;3.73;;;2.90;95.40;;;;;;5073920;28;20271;-78
2024/01/26 00:28:52;;;;;;;8.83;3.90;;;3.00;95.30;;;;;;5073503;28;20244;-76
2024/01/26 00:31:18;;;;;;;4.03;3.47;;;2.90;95.40;;;;;;5074119;28;20701;-77
2024/01/26 00:33:51;;;;;;;3.47;3.17;;;2.60;95.50;;;;;;5074128;28;20182;-79
2024/01/26 00:36:16;;;;;;;5.53;3.70;;;2.80;95.50;;;;;;5077575;28;20201;-75
2024/01/26 00:38:43;;;;;;;8.20;3.60;;;2.90;95.40;;;;;;5077432;28;20184;-76
2024/01/26 00:41:10;;;;;;;4.47;3.50;;;2.90;95.30;;;;;;5079822;28;20661;-77
2024/01/26 00:43:36;;;;;;;6.57;3.70;;;2.60;95.60;;;;;;5085575;28;20172;-80
2024/01/26 00:46:03;;;;;;;5.47;3.50;;;2.60;95.80;;;;;;5084935;28;20218;-78
2024/01/26 00:48:29;;;;;;;4.57;3.60;;;2.70;95.70;;;;;;5082561;28;20717;-77
2024/01/26 00:50:55;;;;;;;3.87;3.40;;;2.50;95.70;;;;;;5079129;28;20645;-77
2024/01/26 00:53:22;;;;;;;6.33;3.83;;;2.50;95.90;;;;;;5074004;28;20184;-78
2024/01/26 00:55:48;;;;;;;5.03;3.70;;;2.60;95.80;;;;;;5073900;28;20213;-77
2024/01/26 00:58:14;;;;;;;5.43;3.60;;;2.70;95.80;;;;;;5074060;28;20175;-77
2024/01/26 01:00:40;;;;;;;5.97;3.70;;;2.70;95.90;;;;;;5072740;28;20272;-77
2024/01/26 01:03:06;;;;;;;5.40;4.00;;;2.60;95.90;;;;;;5074179;28;20174;-78
2024/01/26 01:05:32;;;;;;;5.70;3.37;;;2.70;96.00;;;;;;5072425;28;20183;-76
2024/01/26 01:07:58;;;;;;;6.87;4.60;;;2.70;96.10;;;;;;5073026;28;20191;-77
2024/01/26 01:10:24;;;;;;;5.10;3.90;;;2.80;96.20;;;;;;5071719;28;20191;-76
2024/01/26 01:12:50;;;;;;;7.43;3.97;;;2.70;96.20;;;;;;5072275;28;20187;-77
2024/01/26 01:15:17;;;;;;;5.57;3.40;;;2.60;96.30;;;;;;5071824;28;20207;-76
2024/01/26 01:17:44;;;;;;;5.70;3.67;;;2.60;96.40;;;;;;5071949;28;20649;-78
2024/01/26 01:20:12;;;;;;;3.87;3.50;;;2.60;96.40;;;;;;5070858;28;20667;-78
2024/01/26 01:22:38;;;;;;;9.83;4.10;;;2.50;96.50;;;;;;5071909;28;20525;-76
2024/01/26 01:25:06;;;;;;;5.50;3.20;;;2.50;96.70;;;;;;5072866;28;20177;-76
2024/01/26 01:27:32;;;;;;;4.37;3.33;;;2.50;96.70;;;;;;5073795;28;20173;-75
2024/01/26 01:29:59;;;;;;;5.77;3.00;;;2.50;96.70;;;;;;5072120;28;20235;-76
2024/01/26 01:32:25;;;;;;;6.90;3.00;;;2.60;96.60;;;;;;5079222;28;20207;-78
2024/01/26 01:34:52;;;;;;;5.33;3.17;;;2.40;96.70;;;;;;5072656;28;20710;-77
2024/01/26 01:37:18;;;;;;;3.47;2.90;;;2.30;96.90;;;;;;5071877;28;20175;-78
2024/01/26 01:39:43;;;;;;;4.83;3.33;;;2.20;97.00;;;;;;5071474;28;20703;-79
2024/01/26 01:42:18;;;;;;;4.93;3.60;;;2.10;97.20;;;;;;5071506;28;20202;-78
2024/01/26 01:44:45;;;;;;;4.80;3.33;;;2.00;97.40;;;;;;5071999;28;20246;-79
2024/01/26 01:47:13;;;;;;;3.63;3.10;;;1.90;97.50;;;;;;5070078;28;20203;-76
2024/01/26 01:49:40;;;;;;;5.80;3.47;;;2.10;97.60;;;;;;5073484;28;20181;-77
2024/01/26 01:52:13;;;;;;;3.33;2.97;;;2.20;97.50;;;;;;5073336;28;20273;-79
2024/01/26 01:54:40;;;;;;;6.73;3.70;;;2.30;97.40;;;;;;5070554;28;20693;-77
2024/01/26 01:57:06;;;;;;;3.17;2.90;;;2.30;97.40;;;;;;5071866;28;20209;-77
2024/01/26 01:59:33;;;;;;;5.07;3.63;;;2.30;97.40;;;;;;5071814;28;20262;-78
2024/01/26 02:02:00;;;;;;;8.30;3.43;;;2.40;97.40;;;;;;5071554;28;20164;-77
2024/01/26 02:04:26;;;;;;;4.23;3.53;;;2.30;97.30;;;;;;5071193;28;20176;-76
2024/01/26 02:06:56;;;;;;;4.50;3.07;;;2.30;97.30;;;;;;5071101;28;20273;-77
2024/01/26 02:09:22;;;;;;;5.27;3.53;;;2.30;97.40;;;;;;5071547;28;20777;-77
2024/01/26 02:11:48;;;;;;;4.73;3.43;;;2.30;97.40;;;;;;5072251;28;20179;-75
2024/01/26 02:14:14;;;;;;;5.70;3.23;;;2.30;97.40;;;;;;5075714;28;20654;-77
2024/01/26 02:16:40;;;;;;;6.00;4.23;;;2.30;97.50;;;;;;5075765;28;20176;-77
2024/01/26 02:19:05;;;;;;;3.40;2.90;;;2.10;97.60;;;;;;5076546;28;20577;-78
2024/01/26 02:21:31;;;;;;;3.13;2.90;;;2.10;97.80;;;;;;5075350;28;20177;-79
2024/01/26 02:23:57;;;;;;;5.87;3.10;;;2.10;97.80;;;;;;5075068;28;20538;-76
2024/01/26 02:26:22;;;;;;;6.00;3.27;;;2.00;97.70;;;;;;5086298;28;20197;-78
2024/01/26 02:28:48;;;;;;;4.03;2.57;;;1.80;98.00;;;;;;5087087;28;20179;-79
2024/01/26 02:31:14;;;;;;;3.57;2.90;;;1.90;98.10;;;;;;5086700;28;20180;-78
2024/01/26 02:33:40;;;;;;;4.70;2.83;;;1.90;98.00;;;;;;5079129;28;20197;-78
2024/01/26 02:36:06;;;;;;;7.07;3.20;;;2.00;98.10;;;;;;5084470;28;20201;-77
2024/01/26 02:38:32;;;;;;;4.37;2.80;;;2.00;98.10;;;;;;5081760;28;20179;-77
2024/01/26 02:40:57;;;;;;;7.83;3.60;;;1.90;98.20;;;;;;5075198;28;20182;-77
2024/01/26 02:43:23;;;;;;;6.23;3.80;;;1.90;98.30;;;;;;5075181;28;20536;-76
2024/01/26 02:45:49;;;;;;;9.77;3.20;;;1.90;98.40;;;;;;5077885;28;20288;-80
2024/01/26 02:48:15;;;;;;;6.00;3.20;;;2.00;98.40;;;;;;5077927;28;20183;-78
2024/01/26 02:50:40;;;;;;;5.17;3.30;;;2.10;98.40;;;;;;5083833;28;20246;-78
2024/01/26 02:53:06;;;;;;;5.60;3.73;;;2.10;98.30;;;;;;5076704;28;20215;-76
2024/01/26 02:55:32;;;;;;;3.80;3.07;;;2.10;98.40;;;;;;5074947;28;20668;-77
2024/01/26 02:57:58;;;;;;;4.97;3.23;;;2.20;98.30;;;;;;5073109;28;20167;-78
2024/01/26 03:00:23;;;;;;;4.10;3.43;;;2.20;98.40;;;;;;5074652;28;20179;-78
2024/01/26 03:02:49;;;;;;;5.10;3.37;;;2.30;98.30;;;;;;5074273;28;20172;-78
2024/01/26 03:05:15;;;;;;;7.70;3.33;;;2.20;98.30;;;;;;5073430;28;20190;-78
2024/01/26 03:07:41;;;;;;;6.23;3.50;;;2.20;98.40;;;;;;5074566;28;20254;-77
2024/01/26 03:10:07;;;;;;;6.33;3.60;;;2.20;98.40;;;;;;5074156;28;20287;-79
2024/01/26 03:12:36;;;;;;;7.60;4.10;;;2.20;98.50;;;;;;5075016;28;20565;-78
2024/01/26 03:15:02;;;;;;;5.67;3.33;;;2.30;98.50;;;;;;5074515;28;20260;-78
2024/01/26 03:17:27;;;;;;;5.17;3.50;;;2.20;98.70;;;;;;5074818;28;20169;-76
2024/01/26 03:19:53;;;;;;;5.97;3.33;;;2.20;98.90;;;;;;5073284;28;20590;-79
2024/01/26 03:22:19;;;;;;;5.40;3.33;;;2.20;99.10;;;;;;5073171;28;20185;-77
2024/01/26 03:24:45;;;;;;;7.67;3.47;;;2.30;99.00;;;;;;5074579;28;20183;-77
2024/01/26 03:27:11;;;;;;;9.00;3.67;;;2.30;98.70;;;;;;5074267;28;20190;-77
2024/01/26 03:29:37;;;;;;;6.93;4.07;;;2.30;98.70;;;;;;5074658;28;20171;-76
2024/01/26 03:32:03;;;;;;;7.30;3.27;;;2.30;98.80;;;;;;5075165;28;20179;-78
2024/01/26 03:34:29;;;;;;;5.90;3.07;;;2.40;98.80;;;;;;5074061;28;20187;-80
2024/01/26 03:36:54;;;;;;;7.77;3.60;;;2.40;98.90;;;;;;5074871;28;20177;-79
2024/01/26 03:39:20;;;;;;;9.80;4.27;;;2.50;98.80;;;;;;5074412;28;20664;-78
2024/01/26 03:41:46;;;;;;;6.77;3.27;;;2.60;98.70;;;;;;5074822;28;20171;-78
2024/01/26 03:44:12;;;;;;;6.93;3.40;;;2.60;98.70;;;;;;5075226;28;20229;-78
2024/01/26 03:46:42;;;;;;;6.00;3.17;;;2.60;98.80;;;;;;5073929;28;20250;-78
2024/01/26 03:49:09;;;;;;;4.73;3.33;;;2.60;98.80;;;;;;5074144;28;20618;-77
2024/01/26 03:51:38;;;;;;;7.80;4.07;;;2.40;99.20;;;;;;5073608;28;20275;-78
2024/01/26 03:54:04;;;;;;;7.97;3.90;;;2.40;99.10;;;;;;5074100;28;20184;-75
2024/01/26 03:56:30;;;;;;;8.00;4.20;;;2.40;99.30;;;;;;5073590;28;20681;-78
2024/01/26 03:58:55;;;;;;;5.37;3.13;;;2.40;99.50;;;;;;5073997;28;20204;-77
2024/01/26 04:01:21;;;;;;;5.47;3.67;;;2.40;99.40;;;;;;5073931;28;20270;-76
2024/01/26 04:03:47;;;;;;;9.17;3.80;;;2.50;99.50;;;;;;5073764;28;20167;-77
2024/01/26 04:06:13;;;;;;;7.90;4.10;;;2.60;99.40;;;;;;5076715;28;20167;-78
2024/01/26 04:08:39;;;;;;;7.53;3.73;;;2.60;99.40;;;;;;5079109;28;20246;-79
2024/01/26 04:11:05;;;;;;;8.67;3.97;;;2.70;99.50;;;;;;5074538;28;20178;-79
2024/01/26 04:13:31;;;;;;;8.13;3.43;;;2.60;99.50;;;;;;5072006;28;20221;-78
2024/01/26 04:15:57;;;;;;;6.97;3.90;;;2.60;99.70;;;;;;5073081;28;20236;-77
2024/01/26 04:18:22;;;;;;;8.20;3.47;;;2.70;99.60;;;;;;5073586;28;20178;-78
2024/01/26 04:20:48;;;;;;;14.70;4.10;;;2.70;99.60;;;;;;5073399;28;20297;-76
2024/01/26 04:23:15;;;;;;;6.33;3.73;;;2.70;99.70;;;;;;5073538;28;20634;-76
2024/01/26 04:25:42;;;;;;;5.63;3.60;;;2.80;99.70;;;;;;5077102;28;20186;-76
2024/01/26 04:28:08;;;;;;;5.97;3.87;;;2.90;99.70;;;;;;5086418;28;20213;-77
2024/01/26 04:30:36;;;;;;;8.33;3.77;;;2.90;99.60;;;;;;5082452;28;20629;-78
2024/01/26 04:33:03;;;;;;;9.07;3.80;;;2.90;99.70;;;;;;5079260;28;20533;-77
2024/01/26 04:35:30;;;;;;;9.90;3.60;;;2.90;99.70;;;;;;5073741;28;20213;-76
2024/01/26 04:37:55;;;;;;;7.90;3.77;;;2.90;99.80;;;;;;5073030;28;20188;-77
2024/01/26 04:40:21;;;;;;;8.43;3.80;;;2.90;99.80;;;;;;5084338;28;20203;-79
2024/01/26 04:42:47;;;;;;;3.60;3.30;;;2.90;99.80;;;;;;5075974;28;20181;-79
2024/01/26 04:45:15;;;;;;;7.00;3.97;;;2.90;99.90;;;;;;5076918;28;20177;-80
2024/01/26 04:47:41;;;;;;;8.60;3.80;;;2.90;99.90;;;;;;5076921;28;20231;-77
2024/01/26 04:50:07;;;;;;;9.50;3.70;;;2.90;99.90;;;;;;5077339;28;20164;-76
2024/01/26 04:52:33;;;;;;;5.60;3.43;;;3.00;99.90;;;;;;5078581;28;20254;-77
2024/01/26 04:55:12;;;;;;;5.80;3.53;;;3.00;99.90;;;;;;5079160;28;20212;-78
2024/01/26 04:57:37;;;;;;;9.37;3.73;;;3.00;99.90;;;;;;5072142;28;20209;-76
2024/01/26 05:00:05;;;;;;;6.97;3.70;;;3.00;99.90;;;;;;5074533;28;20180;-76
2024/01/26 05:02:30;;;;;;;10.17;4.10;;;3.00;99.90;;;;;;5072667;28;20199;-77
2024/01/26 05:04:57;;;;;;;8.00;4.60;;;3.00;99.90;;;;;;5072418;28;20654;-78
2024/01/26 05:07:23;;;;;;;9.00;4.37;;;3.10;99.90;;;;;;5090577;28;20262;-77
2024/01/26 05:09:49;;;;;;;6.50;4.00;;;3.00;99.90;;;;;;5092482;28;20277;-77
2024/01/26 05:12:16;;;;;;;6.80;4.20;;;3.00;99.90;;;;;;5092070;28;20189;-77
2024/01/26 05:14:42;;;;;;;6.37;4.30;;;3.00;99.90;;;;;;5093453;28;20702;-77
2024/01/26 05:17:07;;;;;;;8.50;4.20;;;3.00;99.90;;;;;;5090915;28;20213;-77
2024/01/26 05:19:33;;;;;;;5.07;4.17;;;3.10;99.90;;;;;;5092720;28;20176;-76
2024/01/26 05:21:59;;;;;;;8.83;4.73;;;3.20;99.90;;;;;;5092253;28;20592;-77
2024/01/26 05:24:25;;;;;;;10.30;4.90;;;3.20;99.90;;;;;;5094578;28;20244;-78
2024/01/26 05:26:53;;;;;;;9.00;5.00;;;3.10;99.90;;;;;;5100473;28;20309;-77
2024/01/26 05:29:18;;;;;;;9.63;4.23;;;3.00;99.90;;;;;;5094928;28;20174;-75
2024/01/26 05:31:44;;;;;;;7.73;4.30;;;3.10;99.90;;;;;;5096416;28;20644;-77
2024/01/26 05:34:10;;;;;;;10.57;4.10;;;3.10;99.90;;;;;;5082260;28;20183;-76
2024/01/26 05:36:43;;;;;;;13.40;4.90;;;3.00;99.90;;;;;;5082007;28;20214;-76
2024/01/26 05:39:10;;;;;;;8.57;3.87;;;3.30;99.90;;;;;;5093481;28;20620;-77
2024/01/26 05:41:37;;;;;;;7.13;4.33;;;3.30;99.90;;;;;;5092811;28;20539;-78
2024/01/26 05:44:03;;;;;;;7.27;4.20;;;3.30;99.90;;;;;;5093966;28;20624;-78
2024/01/26 05:46:29;;;;;;;7.13;4.27;;;3.30;99.90;;;;;;5093047;28;20757;-78
2024/01/26 05:48:57;;;;;;;10.33;4.03;;;3.30;99.90;;;;;;5096529;28;20264;-77
2024/01/26 05:51:24;;;;;;;7.97;3.90;;;3.40;99.90;;;;;;5095262;28;20214;-78
2024/01/26 05:53:52;;;;;;;12.43;4.73;;;3.40;99.90;;;;;;5096449;28;20171;-77
2024/01/26 05:56:18;;;;;;;8.40;5.00;;;3.40;99.90;;;;;;5095612;28;20205;-77
2024/01/26 05:58:45;;;;;;;10.70;4.53;;;3.40;99.90;;;;;;5095970;28;20540;-79
2024/01/26 06:01:11;;;;;;;9.80;5.22;;;3.50;99.90;;;;;;5095287;28;20413;-78
2024/01/26 06:03:38;;;;;;;7.43;5.07;;;3.50;99.90;;;;;;5095711;28;20250;-77
2024/01/26 06:06:04;;;;;;;7.03;4.70;;;3.50;99.90;;;;;;5095646;28;20178;-75
2024/01/26 06:08:31;;;;;;;11.60;5.00;;;3.60;99.90;;;;;;5096257;28;20208;-76
2024/01/26 06:10:57;;;;;;;11.30;5.30;;;3.60;99.90;;;;;;5095827;28;20664;-77
2024/01/26 06:13:24;;;;;;;13.80;5.33;;;3.70;99.90;;;;;;5094825;28;20174;-76
2024/01/26 06:15:51;;;;;;;9.57;4.60;;;3.70;99.90;;;;;;5093930;28;20210;-77
2024/01/26 06:18:17;;;;;;;13.33;5.67;;;3.70;99.90;;;;;;5096572;28;20196;-76
2024/01/26 06:20:43;;;;;;;16.17;4.23;;;3.60;99.90;;;;;;5078316;28;20228;-77
2024/01/26 06:23:09;;;;;;;8.17;4.27;;;3.60;99.90;;;;;;5103777;28;20180;-78
2024/01/26 06:25:34;;;;;;;16.80;5.10;;;3.60;99.90;;;;;;5105028;28;20257;-77
2024/01/26 06:28:01;;;;;;;9.70;4.87;;;3.60;99.90;;;;;;5098003;28;20212;-77
2024/01/26 06:30:27;;;;;;;11.00;4.40;;;3.60;99.90;;;;;;5095881;28;20208;-77
2024/01/26 06:32:53;;;;;;;13.83;4.60;;;3.60;99.90;;;;;;5095334;28;20204;-77
2024/01/26 06:35:19;;;;;;;12.20;4.93;;;3.70;99.90;;;;;;5095859;28;20202;-77
2024/01/26 06:37:44;;;;;;;10.83;4.50;;;3.60;99.90;;;;;;5095635;28;20187;-77
2024/01/26 06:40:11;;;;;;;9.50;4.60;;;3.60;99.90;;;;;;5095046;28;20224;-77
2024/01/26 06:42:38;;;;;;;10.97;4.40;;;3.70;99.90;;;;;;5100836;28;20244;-77
2024/01/26 06:45:05;;;;;;;9.53;4.63;;;3.80;99.90;;;;;;5096335;28;20246;-77
2024/01/26 06:47:31;;;;;;;8.50;5.03;;;3.70;99.90;;;;;;5096155;28;20189;-76
2024/01/26 06:49:57;;;;;;;14.07;4.83;;;3.80;99.90;;;;;;5096616;28;20666;-76
2024/01/26 06:52:24;;;;;;;10.87;4.70;;;3.90;99.90;;;;;;5078083;28;20562;-76
2024/01/26 06:54:49;;;;;;;12.17;4.83;;;3.90;99.90;;;;;;5081198;28;20209;-75
2024/01/26 06:57:15;;;;;;;15.03;4.83;;;3.90;99.90;;;;;;5079408;28;20189;-77
2024/01/26 06:59:41;;;;;;;9.90;4.93;;;3.80;99.90;;;;;;5079537;28;20186;-76
2024/01/26 07:02:07;;;;;;;9.80;4.73;;;3.80;99.90;;;;;;5077481;28;20209;-75
2024/01/26 07:04:32;;;;;;;12.77;5.17;;;3.90;99.90;;;;;;5076544;28;20634;-75
2024/01/26 07:06:58;;;;;;;10.10;4.70;;;3.90;99.90;;;;;;5075889;28;20228;-78
2024/01/26 07:09:24;;;;;;;9.60;4.97;;;3.90;99.90;;;;;;5080482;28;20558;-76
2024/01/26 07:11:50;;;;;;;7.00;5.10;;;3.90;99.90;;;;;;5085331;28;20410;-77
2024/01/26 07:14:15;;;;;;;13.43;4.53;;;3.90;99.90;;;;;;5075668;28;20190;-78
2024/01/26 07:16:41;;;;;;;11.90;4.87;;;3.90;99.90;;;;;;5074805;28;20193;-78
2024/01/26 07:19:07;;;;;;;13.43;5.20;;;3.90;99.90;;;;;;5073611;28;20182;-77
2024/01/26 07:21:32;;;;;;;9.40;5.37;;;3.80;99.90;;;;;;5075038;28;20214;-77
2024/01/26 07:23:58;;;;;;;11.53;5.20;;;3.80;99.90;;;;;;5074806;28;20617;-77
2024/01/26 07:26:25;;;;;;;9.30;4.97;;;3.80;99.90;;;;;;5074735;28;20669;-76
2024/01/26 07:28:50;;;;;;;10.13;5.03;;;3.80;99.90;;;;;;5074421;28;20178;-77
2024/01/26 07:31:16;;;;;;;7.27;4.43;;;3.80;99.90;;;;;;5075504;28;20245;-79
2024/01/26 07:33:42;;;;;;;8.67;5.07;;;3.70;99.90;;;;;;5094084;28;20173;-77
2024/01/26 07:36:08;;;;;;;12.67;6.20;;;3.80;99.90;;;;;;5093775;28;20237;-78
2024/01/26 07:38:34;;;;;;;10.47;5.27;;;3.90;99.90;;;;;;5094879;28;20239;-79
2024/01/26 07:41:00;;;;;;;11.93;5.83;;;4.00;99.90;;;;;;5095099;28;20253;-77
2024/01/26 07:43:26;;;;;;;14.73;6.17;;;4.10;99.90;;;;;;5094675;28;20205;-78
2024/01/26 07:45:51;;;;;;;10.13;5.90;;;4.00;99.90;;;;;;5095009;28;20169;-76
2024/01/26 07:48:17;;;;;;;14.27;5.97;;;4.00;99.90;;;;;;5094426;28;20212;-77
2024/01/26 07:50:43;;;;;;;12.47;5.77;;;4.00;99.90;;;;;;5094704;28;20182;-76
2024/01/26 07:53:12;;;;;;;7.90;5.63;;;4.10;99.90;;;;;;5094272;28;20235;-78
2024/01/26 07:55:38;;;;;;;12.77;6.53;;;4.00;99.90;;;;;;5094342;28;20209;-79
2024/01/26 07:58:04;;;;;;;10.10;5.73;;;4.00;99.90;;;;;;5094732;28;20264;-75
2024/01/26 08:00:30;;;;;;;11.93;6.53;;;3.90;99.90;;;;;;5102068;28;20201;-76
2024/01/26 08:02:55;;;;;;;15.43;7.33;;;4.00;99.90;;;;;;5085228;28;20658;-76
2024/01/26 08:05:21;;;;;;;14.90;6.93;;;3.80;99.90;;;;;;5075855;28;20201;-76
2024/01/26 08:07:47;;;;;;;17.20;7.33;;;3.90;99.90;;;;;;5074862;28;20176;-76
2024/01/26 08:10:13;;;;;;;9.77;5.67;;;4.00;99.90;;;;;;5074911;28;20258;-76
2024/01/26 08:12:40;;;;;;;10.50;6.70;;;4.00;99.90;;;;;;5074611;28;20204;-77
2024/01/26 08:15:06;;;;;;;15.93;6.57;;;4.00;99.90;;;;;;5074732;28;20226;-76
2024/01/26 08:17:35;;;;;;;11.13;6.50;;;4.00;99.90;;;;;;5078355;28;20663;-77
2024/01/26 08:20:03;;;;;;;21.47;8.77;;;4.10;99.90;;;;;;5080705;28;20179;-76
2024/01/26 08:22:29;;;;;;;23.83;8.37;;;4.20;99.90;;;;;;5084889;28;20537;-77
2024/01/26 08:24:58;;;;;;;23.57;8.67;;;4.30;99.90;;;;;;5096069;28;20183;-76
2024/01/26 08:27:24;;;;;;;17.10;8.27;;;4.40;99.90;;;;;;5097476;28;20528;-76
2024/01/26 08:29:50;;;;;;;20.10;8.93;;;4.40;99.90;;;;;;5095018;28;20179;-77
2024/01/26 08:32:16;;;;;;;18.07;8.50;;;4.50;99.90;;;;;;5094343;28;20174;-77
2024/01/26 08:34:41;;;;;;;20.33;8.73;;;4.50;99.90;;;;;;5094541;28;20205;-77
2024/01/26 08:37:07;;;;;;;13.23;8.17;;;4.60;99.90;;;;;;5094690;28;20217;-76
2024/01/26 08:39:34;;;;;;;19.77;8.53;;;4.70;99.90;;;;;;5093078;28;20175;-77
2024/01/26 08:42:00;;;;;;;18.87;8.63;;;4.80;99.90;;;;;;5092991;28;20777;-76
2024/01/26 08:44:26;;;;;;;16.70;9.07;;;4.80;99.90;;;;;;5094512;28;20169;-76
2024/01/26 08:46:52;;;;;;;14.87;6.77;;;4.80;99.90;;;;;;5095555;28;20191;-76
2024/01/26 08:49:17;;;;;;;14.67;7.27;;;4.90;99.90;;;;;;5092650;28;20637;-77
2024/01/26 08:51:43;;;;;;;14.63;6.80;;;4.90;99.90;;;;;;5093783;28;20251;-77
2024/01/26 08:54:10;;;;;;;15.07;7.10;;;5.00;99.90;;;;;;5078886;28;20190;-76
2024/01/26 08:56:42;;;;;;;12.63;6.83;;;5.10;99.90;;;;;;5073912;28;20322;-77
2024/01/26 08:59:08;;;;;;;13.63;6.77;;;5.30;99.90;;;;;;5073319;28;20181;-77
2024/01/26 09:01:38;;;;;;;13.70;6.83;;;5.40;99.90;;;;;;5071569;28;20182;-79
2024/01/26 09:04:08;;;;;;;13.77;6.63;;;5.50;99.90;;;;;;5073163;28;20175;-75
2024/01/26 09:06:37;;;;;;;14.63;6.30;;;5.70;99.90;;;;;;5073468;28;20182;-78
2024/01/26 09:09:04;;;;;;;14.10;7.20;;;5.80;99.90;;;;;;5072013;28;20189;-76
2024/01/26 09:11:30;;;;;;;13.17;6.33;;;6.00;99.90;;;;;;5073630;28;20192;-77
2024/01/26 09:13:57;;;;;;;13.33;6.87;;;6.10;99.90;;;;;;5086250;28;20191;-77
2024/01/26 09:16:22;;;;;;;13.97;7.23;;;6.30;99.90;;;;;;5095765;28;20214;-78
2024/01/26 09:18:48;;;;;;;14.23;6.53;;;6.50;99.90;;;;;;5089935;28;20715;-76
2024/01/26 09:21:14;;;;;;;10.90;6.67;;;6.50;99.90;;;;;;5073682;28;20681;-77
2024/01/26 09:23:43;;;;;;;15.07;7.60;;;6.60;99.90;;;;;;5071664;28;20217;-78
2024/01/26 09:26:10;;;;;;;16.77;6.30;;;6.70;99.90;;;;;;5073214;28;20268;-77
2024/01/26 09:28:36;;;;;;;13.80;5.90;;;6.60;99.90;;;;;;5073315;28;20174;-78
2024/01/26 09:31:01;;;;;;;8.43;5.30;;;6.50;99.90;;;;;;5073123;28;20219;-78
2024/01/26 09:33:27;;;;;;;11.47;5.40;;;6.60;99.90;;;;;;5072742;28;20194;-77
2024/01/26 09:35:54;;;;;;;16.03;6.30;;;6.70;99.90;;;;;;5073825;28;20223;-77
2024/01/26 09:38:20;;;;;;;13.43;5.97;;;6.80;99.90;;;;;;5074161;28;20197;-77
2024/01/26 09:40:46;;;;;;;11.87;6.77;;;6.80;99.90;;;;;;5074861;28;20209;-76
2024/01/26 09:43:12;;;;;;;12.00;6.40;;;6.80;99.90;;;;;;5069068;28;20200;-77
2024/01/26 09:45:38;;;;;;;12.87;6.53;;;6.80;99.90;;;;;;5072706;28;20938;-78
2024/01/26 09:48:08;;;;;;;14.00;6.70;;;6.70;99.90;;;;;;5080630;28;20185;-77
2024/01/26 09:50:34;;;;;;;10.60;5.80;;;7.00;99.90;;;;;;5092451;28;20252;-76
2024/01/26 09:53:03;;;;;;;13.87;6.03;;;7.10;99.90;;;;;;5091939;28;20693;-77
2024/01/26 09:55:32;;;;;;;15.17;6.23;;;7.20;99.90;;;;;;5093701;28;20728;-78
2024/01/26 09:57:58;;;;;;;11.43;5.87;;;7.30;99.90;;;;;;5091316;28;20174;-77
2024/01/26 10:00:24;;;;;;;14.77;6.10;;;7.40;99.90;;;;;;5092510;28;20217;-79
2024/01/26 10:02:50;;;;;;;14.10;6.87;;;7.10;99.90;;;;;;5092065;28;20534;-75
2024/01/26 10:05:17;;;;;;;11.53;6.63;;;6.90;99.90;;;;;;5092746;28;20184;-78
2024/01/26 10:07:46;;;;;;;13.83;6.70;;;6.90;99.90;;;;;;5092614;28;20183;-77
2024/01/26 10:10:13;;;;;;;12.10;6.30;;;6.80;99.90;;;;;;5090769;28;20681;-76
2024/01/26 10:12:40;;;;;;;14.20;6.73;;;6.90;99.90;;;;;;5092318;28;20521;-77
2024/01/26 10:15:09;;;;;;;11.03;6.23;;;7.10;99.90;;;;;;5092064;28;20205;-76
2024/01/26 10:17:35;;;;;;;9.33;5.70;;;7.20;99.90;;;;;;5099481;28;20193;-79
2024/01/26 10:20:15;;;;;;;14.80;6.00;;;7.30;99.90;;;;;;5092401;28;20490;-78
2024/01/26 10:22:45;;;;;;;13.40;6.50;;;7.30;99.90;;;;;;5092200;28;20285;-78
2024/01/26 10:25:14;;;;;;;12.30;5.87;;;7.50;99.90;;;;;;5092236;28;20175;-77
2024/01/26 10:27:40;;;;;;;15.07;5.70;;;7.60;99.90;;;;;;5091588;28;20185;-78
2024/01/26 10:30:07;;;;;;;14.63;5.93;;;7.70;99.90;;;;;;5091619;28;20217;-77
2024/01/26 10:32:33;;;;;;;13.87;5.73;;;7.80;99.90;;;;;;5091864;28;20174;-77
2024/01/26 10:35:02;;;;;;;14.13;5.83;;;8.00;99.90;;;;;;5096307;28;20648;-77
2024/01/26 10:37:30;;;;;;;17.00;6.30;;;8.00;99.90;;;;;;5106035;28;20175;-77
2024/01/26 10:39:57;;;;;;;13.43;6.60;;;8.00;99.70;;;;;;5097439;28;20175;-79
2024/01/26 10:42:24;;;;;;;16.33;6.13;;;8.00;99.90;;;;;;5095482;28;20178;-78
2024/01/26 10:44:51;;;;;;;13.37;6.27;;;7.70;99.70;;;;;;5095090;28;20179;-77
2024/01/26 10:47:18;;;;;;;11.50;5.77;;;7.90;99.90;;;;;;5095028;28;20287;-76
2024/01/26 10:49:49;;;;;;;12.50;5.53;;;7.80;99.80;;;;;;5093884;28;20190;-76
2024/01/26 10:52:19;;;;;;;15.37;5.53;;;7.50;99.70;;;;;;5095228;28;20781;-78
2024/01/26 10:54:50;;;;;;;11.27;5.57;;;7.40;99.80;;;;;;5095604;28;20202;-76
2024/01/26 10:57:19;;;;;;;9.47;5.40;;;7.30;99.90;;;;;;5095489;28;20193;-78
2024/01/26 10:59:45;;;;;;;9.93;5.77;;;7.20;99.90;;;;;;5097191;28;20174;-76
2024/01/26 11:02:21;;;;;;;10.83;6.10;;;7.20;99.90;;;;;;5112134;28;20246;-76
2024/01/26 11:04:48;;;;;;;9.60;5.67;;;7.10;99.90;;;;;;5107743;28;20688;-78
2024/01/26 11:07:17;;;;;;;9.67;6.53;;;7.30;99.90;;;;;;5108018;28;20178;-76
2024/01/26 11:09:46;;;;;;;19.10;8.37;;;7.30;99.90;;;;;;5101331;28;20164;-78
2024/01/26 11:12:25;;;;;;;17.97;8.70;;;7.30;99.90;;;;;;5098783;28;20197;-77
2024/01/26 11:15:08;;;;;;;33.97;17.77;;;7.30;99.90;;;;;;5103914;28;20202;-77
2024/01/26 11:17:54;;;;;;;10.80;6.77;;;7.40;99.90;;;;;;5099796;28;20178;-76
2024/01/26 11:20:26;;;;;;;17.13;6.13;;;7.40;99.90;;;;;;5095212;28;20163;-77
2024/01/26 11:23:11;;;;;;;18.30;6.20;;;7.50;99.90;;;;;;5095485;28;20226;-77
2024/01/26 11:25:49;;;;;;;16.40;6.10;;;7.50;99.90;;;;;;5093955;28;20227;-77
2024/01/26 11:28:16;;;;;;;13.80;6.40;;;7.50;99.90;;;;;;5094171;28;20185;-76
2024/01/26 11:30:50;;;;;;;12.37;6.20;;;7.50;99.90;;;;;;5094307;28;20228;-77
2024/01/26 11:33:18;;;;;;;13.63;5.90;;;7.60;99.90;;;;;;5093096;28;20212;-77
2024/01/26 11:35:45;;;;;;;11.97;5.80;;;7.60;99.90;;;;;;5093112;28;20557;-79
2024/01/26 11:38:12;;;;;;;15.17;6.13;;;7.80;99.90;;;;;;5094047;28;20177;-76
2024/01/26 11:40:38;;;;;;;10.97;6.60;;;8.00;99.60;;;;;;5094679;28;20708;-77
2024/01/26 11:43:04;;;;;;;13.93;6.20;;;8.20;99.50;;;;;;5094430;28;20173;-77
2024/01/26 11:45:40;;;;;;;11.40;6.17;;;8.30;99.30;;;;;;5093249;28;20178;-77
2024/01/26 11:48:09;;;;;;;10.60;5.70;;;8.40;99.40;;;;;;5093923;28;20614;-76
2024/01/26 11:50:44;;;;;;;13.43;6.30;;;8.50;99.20;;;;;;5095625;28;20174;-80
2024/01/26 11:53:12;;;;;;;13.83;6.50;;;8.60;99.00;;;;;;5094232;28;20230;-77
2024/01/26 11:55:39;;;;;;;11.47;6.47;;;8.80;98.80;;;;;;5099851;28;20215;-77
2024/01/26 11:58:09;;;;;;;10.93;6.10;;;8.80;98.80;;;;;;5099409;28;20207;-77
2024/01/26 12:00:35;;;;;;;11.77;6.33;;;8.90;98.70;;;;;;5093656;28;20172;-76
2024/01/26 12:03:08;;;;;;;14.20;5.73;;;8.90;98.50;;;;;;5093379;28;20545;-77
2024/01/26 12:05:37;;;;;;;13.43;6.17;;;9.00;98.50;;;;;;5093637;28;20167;-78
2024/01/26 12:08:05;;;;;;;13.47;7.40;;;8.90;98.70;;;;;;5092544;28;20635;-78
2024/01/26 12:10:35;;;;;;;15.50;6.37;;;9.00;98.80;;;;;;5093362;28;20188;-77
2024/01/26 12:13:01;;;;;;;9.97;6.13;;;9.10;98.30;;;;;;5094526;28;20185;-76
2024/01/26 12:15:39;;;;;;;10.10;5.87;;;9.00;97.80;;;;;;5104097;28;20209;-79
2024/01/26 12:18:09;;;;;;;11.17;6.27;;;8.80;98.10;;;;;;5098545;28;20158;-80
2024/01/26 12:20:35;;;;;;;16.70;6.37;;;8.90;98.50;;;;;;5093472;28;20251;-77
2024/01/26 12:23:01;;;;;;;15.63;5.97;;;8.80;98.30;;;;;;5093511;28;20318;-77
2024/01/26 12:25:27;;;;;;;15.10;6.30;;;8.90;98.30;;;;;;5093687;28;20524;-76
2024/01/26 12:28:01;;;;;;;9.20;5.53;;;8.80;98.50;;;;;;5093154;28;20174;-77
2024/01/26 12:30:28;;;;;;;12.07;5.60;;;9.00;98.80;;;;;;5093542;28;20177;-77
2024/01/26 12:33:02;;;;;;;11.77;6.23;;;9.00;98.30;;;;;;5093301;28;20173;-77
2024/01/26 12:35:33;;;;;;;10.83;5.67;;;8.90;98.30;;;;;;5093056;28;20198;-77
2024/01/26 12:37:58;;;;;;;35.67;20.00;;;8.90;98.30;;;;;;5093112;28;20161;-76
2024/01/26 12:40:24;;;;;;;31.73;19.13;;;8.80;98.60;;;;;;5093254;28;20182;-78
2024/01/26 12:42:50;;;;;;;17.47;7.47;;;8.90;99.90;;;;;;5093161;28;20569;-78
2024/01/26 12:45:16;;;;;;;12.90;6.50;;;8.90;99.30;;;;;;5093800;28;20166;-77
2024/01/26 12:47:41;;;;;;;12.07;5.67;;;9.00;98.70;;;;;;5093425;28;20172;-77
2024/01/26 12:50:08;;;;;;;14.77;9.00;;;9.00;98.40;;;;;;5093071;28;20226;-79
2024/01/26 12:52:34;;;;;;;13.43;6.00;;;9.10;98.30;;;;;;5092206;28;20626;-77